Time;durP1;ratioP1;P1;durP2;ratioP2;P2;SDS_P1;SDS_P2;PMS_P1;PMS_P2;Temp;Humidity;BMP_temperature;BMP_pressure;BME280_temperature;BME280_humidity;BME280_pressure;Samples;Min_cycle;Max_cycle;Signal;HPM_P1;HPM_P2
2024/01/03 00:00:55;;;;;;;1.73;0.30;;;;;;;;;;4935974;29;20854;-91
2024/01/03 00:03:22;;;;;;;2.53;0.50;;;;;;;;;;4936590;29;20501;-91
2024/01/03 00:05:48;;;;;;;2.00;0.57;;;;;;;;;;4936529;29;20426;-91
2024/01/03 00:08:23;;;;;;;3.13;0.60;;;;;;;;;;4936446;29;20787;-91
2024/01/03 00:10:50;;;;;;;1.10;0.30;;;;;;;;;;4936214;29;20420;-91
2024/01/03 00:13:34;;;;;;;2.63;0.57;;;;;;;;;;4936260;29;20416;-91
2024/01/03 00:15:59;;;;;;;1.77;0.20;;;;;;;;;;4950751;28;20839;-91
2024/01/03 00:18:44;;;;;;;1.50;0.20;;;;;;;;;;4950945;29;20429;-91
2024/01/03 00:21:11;;;;;;;2.80;0.47;;;;;;;;;;4930091;29;20192;-91
2024/01/03 00:23:38;;;;;;;4.30;0.50;;;;;;;;;;4936547;29;20466;-91
2024/01/03 00:26:05;;;;;;;7.83;1.23;;;;;;;;;;4940509;29;20448;-91
2024/01/03 00:28:32;;;;;;;2.83;0.43;;;;;;;;;;4954396;28;20479;-91
2024/01/03 00:30:57;;;;;;;4.00;0.40;;;;;;;;;;4934000;29;20910;-86
2024/01/03 00:33:23;;;;;;;2.37;0.30;;;;;;;;;;4939355;29;20491;-91
2024/01/03 00:35:51;;;;;;;3.93;0.30;;;;;;;;;;4939433;29;20502;-91
2024/01/03 00:38:17;;;;;;;2.33;0.20;;;;;;;;;;4939492;29;20287;-92
2024/01/03 00:40:57;;;;;;;4.13;0.50;;;;;;;;;;4939348;29;20807;-89
2024/01/03 00:43:23;;;;;;;1.17;0.83;;;;;;;;;;4937745;29;20476;-92
2024/01/03 00:45:49;;;;;;;3.13;0.20;;;;;;;;;;4938815;29;20422;-90
2024/01/03 00:48:19;;;;;;;5.50;0.30;;;;;;;;;;4939137;29;20237;-91
2024/01/03 00:50:44;;;;;;;4.43;0.43;;;;;;;;;;4891061;28;20449;-89
2024/01/03 00:53:12;;;;;;;2.63;0.47;;;;;;;;;;4954171;28;20924;-91
2024/01/03 00:55:38;;;;;;;7.87;0.30;;;;;;;;;;4937189;29;20429;-89
2024/01/03 00:58:04;;;;;;;5.60;0.50;;;;;;;;;;4939210;29;20454;-91
2024/01/03 01:00:30;;;;;;;1.90;0.30;;;;;;;;;;4938889;29;20468;-86
2024/01/03 01:02:56;;;;;;;3.13;0.40;;;;;;;;;;4954166;28;20494;-91
2024/01/03 01:05:22;;;;;;;5.10;0.60;;;;;;;;;;4939130;29;20504;-91
2024/01/03 01:07:48;;;;;;;4.43;0.50;;;;;;;;;;4938893;29;20418;-91
2024/01/03 01:10:14;;;;;;;2.00;0.23;;;;;;;;;;4938946;29;20772;-86
2024/01/03 01:12:40;;;;;;;6.17;0.53;;;;;;;;;;4938492;29;20430;-91
2024/01/03 01:15:06;;;;;;;6.80;0.50;;;;;;;;;;4947426;28;20432;-91
2024/01/03 01:17:32;;;;;;;1.57;0.30;;;;;;;;;;4938704;29;20218;-90
2024/01/03 01:19:58;;;;;;;3.40;0.40;;;;;;;;;;4938891;29;20811;-89
2024/01/03 01:22:26;;;;;;;5.13;0.30;;;;;;;;;;4938776;29;20179;-90
2024/01/03 01:24:52;;;;;;;2.10;0.23;;;;;;;;;;4938666;29;20188;-91
2024/01/03 01:27:18;;;;;;;1.67;0.20;;;;;;;;;;4938599;29;20415;-91
2024/01/03 01:29:44;;;;;;;1.90;0.27;;;;;;;;;;4953422;28;20420;-90
2024/01/03 01:32:10;;;;;;;5.50;0.40;;;;;;;;;;4938905;29;20484;-92
2024/01/03 01:34:36;;;;;;;3.57;0.57;;;;;;;;;;4938990;29;20482;-92
2024/01/03 01:37:05;;;;;;;3.47;0.20;;;;;;;;;;4937630;29;20599;-90
2024/01/03 01:39:30;;;;;;;2.87;0.33;;;;;;;;;;4938468;29;20257;-90
2024/01/03 01:41:56;;;;;;;3.80;1.07;;;;;;;;;;4938744;29;20407;-90
2024/01/03 01:44:22;;;;;;;3.43;0.23;;;;;;;;;;4938172;29;20302;-91
2024/01/03 01:46:48;;;;;;;2.63;0.47;;;;;;;;;;4953486;28;20175;-93
2024/01/03 01:49:17;;;;;;;4.33;0.67;;;;;;;;;;4938214;29;20445;-90
2024/01/03 01:51:44;;;;;;;5.60;0.60;;;;;;;;;;4938331;29;20467;-89
2024/01/03 01:54:13;;;;;;;3.20;0.50;;;;;;;;;;4938032;29;20419;-89
2024/01/03 01:56:40;;;;;;;5.20;0.30;;;;;;;;;;4938193;29;20777;-91
2024/01/03 01:59:10;;;;;;;5.27;0.40;;;;;;;;;;4952349;28;20918;-90
2024/01/03 02:01:36;;;;;;;1.40;0.37;;;;;;;;;;4937898;29;20506;-90
2024/01/03 02:04:04;;;;;;;2.87;0.40;;;;;;;;;;4937435;28;20526;-91
2024/01/03 02:06:31;;;;;;;3.33;0.70;;;;;;;;;;4937803;29;20420;-90
2024/01/03 02:08:56;;;;;;;3.03;0.40;;;;;;;;;;4938233;29;20423;-91
2024/01/03 02:11:22;;;;;;;4.10;0.30;;;;;;;;;;4952848;28;20461;-89
2024/01/03 02:13:48;;;;;;;4.33;0.67;;;;;;;;;;4937122;29;20833;-88
2024/01/03 02:16:14;;;;;;;3.27;0.20;;;;;;;;;;4937184;29;20936;-89
2024/01/03 02:18:41;;;;;;;1.63;0.43;;;;;;;;;;4937252;29;20462;-87
2024/01/03 02:21:17;;;;;;;1.90;0.20;;;;;;;;;;4897266;28;20438;-87
2024/01/03 02:23:43;;;;;;;4.00;0.70;;;;;;;;;;4932988;29;21000;-91
2024/01/03 02:26:09;;;;;;;8.83;0.77;;;;;;;;;;4937495;29;20428;-91
2024/01/03 02:28:35;;;;;;;3.90;0.30;;;;;;;;;;4937045;29;20468;-92
2024/01/03 02:31:01;;;;;;;3.23;0.40;;;;;;;;;;4937270;29;20557;-91
2024/01/03 02:33:27;;;;;;;3.20;0.40;;;;;;;;;;4937563;29;20858;-90
2024/01/03 02:35:53;;;;;;;9.73;0.83;;;;;;;;;;4937713;29;20774;-92
2024/01/03 02:38:21;;;;;;;2.20;0.30;;;;;;;;;;4937085;29;20562;-91
2024/01/03 02:40:47;;;;;;;4.57;0.80;;;;;;;;;;4937532;29;20469;-90
2024/01/03 02:43:13;;;;;;;2.30;0.37;;;;;;;;;;4936977;29;20461;-91
2024/01/03 02:45:39;;;;;;;3.23;0.53;;;;;;;;;;4951522;28;21007;-91
2024/01/03 02:48:08;;;;;;;2.37;0.30;;;;;;;;;;4937103;29;20418;-91
2024/01/03 02:50:44;;;;;;;3.90;0.43;;;;;;;;;;4937406;29;20179;-91
2024/01/03 02:53:10;;;;;;;3.17;0.40;;;;;;;;;;4937049;29;20425;-91
2024/01/03 02:55:36;;;;;;;3.57;0.50;;;;;;;;;;4937146;29;20429;-90
2024/01/03 02:58:02;;;;;;;3.83;0.83;;;;;;;;;;4951881;28;20518;-90
2024/01/03 03:00:28;;;;;;;3.87;0.30;;;;;;;;;;4936443;29;20981;-91
2024/01/03 03:02:54;;;;;;;3.63;0.60;;;;;;;;;;4937044;29;20537;-90
2024/01/03 03:05:20;;;;;;;2.10;0.57;;;;;;;;;;4937282;29;20177;-90
2024/01/03 03:07:45;;;;;;;4.20;1.43;;;;;;;;;;4936904;29;20914;-92
2024/01/03 03:10:11;;;;;;;6.13;0.83;;;;;;;;;;4936977;29;20970;-91
2024/01/03 03:12:37;;;;;;;2.13;0.43;;;;;;;;;;4936737;29;20421;-92
2024/01/03 03:15:04;;;;;;;1.70;0.33;;;;;;;;;;4936614;29;20435;-90
2024/01/03 03:17:30;;;;;;;5.53;1.00;;;;;;;;;;4937032;29;20418;-92
2024/01/03 03:19:56;;;;;;;5.50;0.53;;;;;;;;;;4936804;29;20426;-88
2024/01/03 03:22:22;;;;;;;4.23;0.30;;;;;;;;;;4936748;29;20432;-92
2024/01/03 03:24:48;;;;;;;2.90;0.20;;;;;;;;;;4936768;29;20545;-91
2024/01/03 03:27:14;;;;;;;4.47;0.40;;;;;;;;;;4936765;28;20175;-92
2024/01/03 03:29:40;;;;;;;4.87;0.50;;;;;;;;;;4936810;29;21137;-91
2024/01/03 03:32:07;;;;;;;5.77;0.40;;;;;;;;;;4936883;29;20482;-90
2024/01/03 03:34:33;;;;;;;2.63;0.40;;;;;;;;;;4936636;29;20419;-91
2024/01/03 03:36:59;;;;;;;3.10;0.83;;;;;;;;;;4934928;29;20438;-92
2024/01/03 03:39:24;;;;;;;6.77;0.73;;;;;;;;;;4936606;29;20237;-91
2024/01/03 03:41:50;;;;;;;4.40;0.40;;;;;;;;;;4936983;29;20418;-92
2024/01/03 03:44:16;;;;;;;4.20;0.90;;;;;;;;;;4936506;29;20315;-92
2024/01/03 03:46:42;;;;;;;3.20;0.50;;;;;;;;;;4936917;29;20890;-91
2024/01/03 03:49:08;;;;;;;1.60;0.40;;;;;;;;;;4936464;29;20424;-92
2024/01/03 03:51:34;;;;;;;3.30;0.30;;;;;;;;;;4936912;29;20504;-91
2024/01/03 03:54:00;;;;;;;1.43;0.30;;;;;;;;;;4936633;29;20456;-89
2024/01/03 03:56:29;;;;;;;4.00;0.33;;;;;;;;;;4936741;29;20196;-89
2024/01/03 03:58:55;;;;;;;3.00;0.40;;;;;;;;;;4937130;29;20421;-90
2024/01/03 04:01:21;;;;;;;3.43;0.40;;;;;;;;;;4940817;29;20888;-90
2024/01/03 04:03:46;;;;;;;2.17;0.20;;;;;;;;;;4939408;29;20501;-91
2024/01/03 04:06:13;;;;;;;3.13;0.30;;;;;;;;;;4940426;29;20415;-92
2024/01/03 04:08:45;;;;;;;5.87;0.73;;;;;;;;;;4941282;29;20966;-92
2024/01/03 04:11:12;;;;;;;2.80;0.20;;;;;;;;;;4941288;29;20426;-91
2024/01/03 04:13:38;;;;;;;1.30;0.20;;;;;;;;;;4939905;29;20443;-92
2024/01/03 04:16:05;;;;;;;2.10;0.20;;;;;;;;;;4940207;29;20406;-92
2024/01/03 04:18:31;;;;;;;2.50;0.50;;;;;;;;;;4940236;29;20424;-89
2024/01/03 04:20:56;;;;;;;2.10;0.40;;;;;;;;;;4940302;29;20416;-89
2024/01/03 04:23:22;;;;;;;1.50;0.33;;;;;;;;;;4939944;29;20527;-85
2024/01/03 04:25:48;;;;;;;4.97;0.40;;;;;;;;;;4939828;29;20856;-89
2024/01/03 04:28:14;;;;;;;4.27;0.20;;;;;;;;;;4939255;29;20184;-86
2024/01/03 04:30:40;;;;;;;6.57;0.70;;;;;;;;;;4939801;29;20533;-87
2024/01/03 04:33:06;;;;;;;1.60;0.20;;;;;;;;;;4938263;29;20432;-85
2024/01/03 04:35:32;;;;;;;0.80;0.20;;;;;;;;;;4939269;29;20185;-87
2024/01/03 04:38:02;;;;;;;3.13;0.20;;;;;;;;;;4939091;29;20454;-89
2024/01/03 04:40:28;;;;;;;1.87;0.20;;;;;;;;;;4939520;29;20420;-90
2024/01/03 04:42:57;;;;;;;1.30;0.30;;;;;;;;;;4939340;29;20909;-89
2024/01/03 04:45:23;;;;;;;0.90;0.20;;;;;;;;;;4938901;29;20191;-89
2024/01/03 04:47:49;;;;;;;1.40;0.10;;;;;;;;;;4939019;29;20506;-86
2024/01/03 04:50:15;;;;;;;2.17;0.87;;;;;;;;;;4939334;29;20898;-88
2024/01/03 04:52:41;;;;;;;2.30;0.20;;;;;;;;;;4937872;29;20472;-87
2024/01/03 04:55:07;;;;;;;1.17;0.20;;;;;;;;;;4938839;29;20413;-90
2024/01/03 04:57:36;;;;;;;2.80;0.60;;;;;;;;;;4938956;29;20426;-88
2024/01/03 05:00:05;;;;;;;2.47;0.20;;;;;;;;;;4938498;29;20427;-88
2024/01/03 05:02:31;;;;;;;1.07;0.27;;;;;;;;;;4937490;29;20436;-88
2024/01/03 05:04:57;;;;;;;1.67;0.20;;;;;;;;;;4938662;29;20960;-86
2024/01/03 05:07:26;;;;;;;3.40;0.30;;;;;;;;;;4938743;29;20416;-87
2024/01/03 05:09:52;;;;;;;4.10;0.20;;;;;;;;;;4937181;29;20484;-87
2024/01/03 05:12:18;;;;;;;1.57;0.30;;;;;;;;;;4938740;29;20924;-89
2024/01/03 05:14:44;;;;;;;1.73;0.20;;;;;;;;;;4938254;29;20834;-89
2024/01/03 05:17:10;;;;;;;0.93;0.20;;;;;;;;;;4938538;29;20410;-88
2024/01/03 05:19:36;;;;;;;1.30;0.20;;;;;;;;;;4937088;29;20439;-87
2024/01/03 05:22:01;;;;;;;1.07;0.20;;;;;;;;;;4937263;29;20414;-89
2024/01/03 05:24:28;;;;;;;1.50;0.30;;;;;;;;;;4938299;29;20266;-86
2024/01/03 05:26:54;;;;;;;1.63;0.20;;;;;;;;;;4937048;29;20240;-86
2024/01/03 05:29:20;;;;;;;1.50;0.20;;;;;;;;;;4936928;29;20493;-86
2024/01/03 05:31:46;;;;;;;2.10;0.20;;;;;;;;;;4937064;29;20941;-87
2024/01/03 05:34:12;;;;;;;2.10;0.30;;;;;;;;;;4938389;29;20177;-86
2024/01/03 05:36:38;;;;;;;2.97;0.40;;;;;;;;;;4938260;29;20208;-89
2024/01/03 05:39:03;;;;;;;3.20;0.40;;;;;;;;;;4937863;29;20481;-88
2024/01/03 05:41:29;;;;;;;1.90;0.80;;;;;;;;;;4938026;29;20185;-89
2024/01/03 05:43:55;;;;;;;2.70;0.30;;;;;;;;;;4937835;29;20483;-90
2024/01/03 05:46:21;;;;;;;4.20;0.50;;;;;;;;;;4938303;29;20429;-88
2024/01/03 05:48:50;;;;;;;2.83;0.90;;;;;;;;;;4938226;29;20901;-89
2024/01/03 05:51:16;;;;;;;2.87;0.57;;;;;;;;;;4938366;29;20410;-87
2024/01/03 05:53:47;;;;;;;4.07;0.40;;;;;;;;;;4938179;29;20754;-89
2024/01/03 05:56:14;;;;;;;2.87;0.30;;;;;;;;;;4937913;29;20417;-88
2024/01/03 05:58:40;;;;;;;3.67;0.30;;;;;;;;;;4937384;29;20429;-88
2024/01/03 06:01:06;;;;;;;4.20;0.30;;;;;;;;;;4937703;29;20406;-87
2024/01/03 06:03:32;;;;;;;4.47;1.00;;;;;;;;;;4937784;29;20539;-89
2024/01/03 06:05:58;;;;;;;8.07;0.73;;;;;;;;;;4936727;29;20448;-88
2024/01/03 06:08:24;;;;;;;3.77;0.53;;;;;;;;;;4937722;29;20914;-90
2024/01/03 06:10:50;;;;;;;8.33;0.97;;;;;;;;;;4937669;29;20185;-89
2024/01/03 06:13:16;;;;;;;7.53;0.60;;;;;;;;;;4937160;29;20423;-86
2024/01/03 06:15:42;;;;;;;9.03;1.20;;;;;;;;;;4937378;29;20588;-89
2024/01/03 06:18:08;;;;;;;11.03;1.47;;;;;;;;;;4937417;29;20477;-87
2024/01/03 06:20:34;;;;;;;8.63;1.13;;;;;;;;;;4937706;29;20417;-89
2024/01/03 06:23:00;;;;;;;7.83;0.83;;;;;;;;;;4936996;29;20198;-89
2024/01/03 06:25:26;;;;;;;11.93;0.90;;;;;;;;;;4937553;29;20770;-90
2024/01/03 06:27:53;;;;;;;5.40;0.40;;;;;;;;;;4937228;29;20224;-90
2024/01/03 06:30:19;;;;;;;7.60;0.53;;;;;;;;;;4937733;29;20456;-89
2024/01/03 06:32:45;;;;;;;7.40;0.60;;;;;;;;;;4937623;29;20460;-90
2024/01/03 06:35:11;;;;;;;7.90;1.00;;;;;;;;;;4936601;29;20464;-87
2024/01/03 06:37:37;;;;;;;12.40;1.00;;;;;;;;;;4937825;29;20469;-89
2024/01/03 06:40:03;;;;;;;9.60;0.77;;;;;;;;;;4936244;29;20237;-86
2024/01/03 06:42:28;;;;;;;7.90;0.70;;;;;;;;;;4937371;29;20192;-88
2024/01/03 06:44:54;;;;;;;10.93;1.23;;;;;;;;;;4935136;29;20838;-89
2024/01/03 06:47:20;;;;;;;7.40;0.70;;;;;;;;;;4935605;29;20174;-89
2024/01/03 06:49:46;;;;;;;6.33;0.87;;;;;;;;;;4937450;29;20949;-92
2024/01/03 06:52:12;;;;;;;10.80;0.90;;;;;;;;;;4909907;28;20532;-85
2024/01/03 06:54:38;;;;;;;10.63;1.60;;;;;;;;;;4939867;28;20544;-91
2024/01/03 06:57:06;;;;;;;5.17;0.83;;;;;;;;;;4937833;29;20420;-92
2024/01/03 06:59:36;;;;;;;6.30;0.30;;;;;;;;;;4937190;29;20485;-91
2024/01/03 07:02:02;;;;;;;9.57;0.80;;;;;;;;;;4937345;29;20832;-90
2024/01/03 07:04:27;;;;;;;7.23;0.70;;;;;;;;;;4938538;29;20484;-90
2024/01/03 07:06:53;;;;;;;7.43;0.87;;;;;;;;;;4938509;29;20472;-91
2024/01/03 07:09:20;;;;;;;7.17;0.67;;;;;;;;;;4938495;29;20425;-89
2024/01/03 07:11:46;;;;;;;10.00;0.43;;;;;;;;;;4938758;28;20759;-90
2024/01/03 07:14:13;;;;;;;7.00;0.70;;;;;;;;;;4940817;29;20501;-91
2024/01/03 07:16:42;;;;;;;9.50;1.00;;;;;;;;;;4941601;29;20476;-91
2024/01/03 07:19:08;;;;;;;8.53;0.80;;;;;;;;;;4940780;29;20425;-92
2024/01/03 07:21:34;;;;;;;9.27;1.43;;;;;;;;;;4941784;29;20420;-91
2024/01/03 07:24:01;;;;;;;9.00;1.80;;;;;;;;;;4941944;29;20479;-93
2024/01/03 07:26:27;;;;;;;4.83;0.50;;;;;;;;;;4941194;29;20419;-90
2024/01/03 07:28:53;;;;;;;3.43;0.30;;;;;;;;;;4940980;29;20921;-94
2024/01/03 07:31:22;;;;;;;5.70;0.40;;;;;;;;;;4940878;29;20497;-91
2024/01/03 07:33:48;;;;;;;7.23;0.40;;;;;;;;;;4939588;29;20418;-89
2024/01/03 07:36:17;;;;;;;5.13;0.57;;;;;;;;;;4940295;29;20421;-91
2024/01/03 07:38:44;;;;;;;7.63;0.40;;;;;;;;;;4941349;29;20493;-91
2024/01/03 07:41:16;;;;;;;5.40;1.37;;;;;;;;;;4939803;28;20416;-90
2024/01/03 07:43:42;;;;;;;5.90;0.57;;;;;;;;;;4939753;29;20471;-92
2024/01/03 07:46:11;;;;;;;4.33;0.60;;;;;;;;;;4939631;29;20417;-91
2024/01/03 07:48:36;;;;;;;6.37;0.93;;;;;;;;;;4952460;28;20537;-89
2024/01/03 07:51:02;;;;;;;6.13;0.80;;;;;;;;;;4936156;29;20515;-88
2024/01/03 07:53:28;;;;;;;5.20;1.07;;;;;;;;;;4936684;29;20426;-88
2024/01/03 07:55:58;;;;;;;8.23;1.10;;;;;;;;;;4936705;29;20437;-88
2024/01/03 07:58:24;;;;;;;8.17;1.27;;;;;;;;;;4950269;28;20870;-91
2024/01/03 08:00:53;;;;;;;6.63;0.50;;;;;;;;;;4936307;29;20421;-92
2024/01/03 08:03:21;;;;;;;6.37;0.80;;;;;;;;;;4936444;29;20519;-87
2024/01/03 08:05:48;;;;;;;13.27;1.50;;;;;;;;;;4923209;28;20819;-92
2024/01/03 08:08:17;;;;;;;11.13;1.47;;;;;;;;;;4924156;29;20428;-90
2024/01/03 08:10:49;;;;;;;6.10;0.80;;;;;;;;;;4935931;29;20473;-85
2024/01/03 08:13:15;;;;;;;8.33;1.20;;;;;;;;;;4936033;29;20451;-88
2024/01/03 08:15:41;;;;;;;6.23;0.77;;;;;;;;;;4936240;29;21014;-89
2024/01/03 08:18:07;;;;;;;6.70;1.23;;;;;;;;;;4950439;29;20439;-91
2024/01/03 08:20:33;;;;;;;10.23;0.87;;;;;;;;;;4936176;29;20902;-86
2024/01/03 08:22:59;;;;;;;4.70;0.30;;;;;;;;;;4935750;29;20453;-90
2024/01/03 08:25:28;;;;;;;5.10;0.30;;;;;;;;;;4935412;29;20441;-85
2024/01/03 08:27:57;;;;;;;4.37;0.60;;;;;;;;;;4935049;29;20425;-88
2024/01/03 08:30:23;;;;;;;3.90;0.77;;;;;;;;;;4935417;29;20816;-89
2024/01/03 08:32:49;;;;;;;8.90;0.70;;;;;;;;;;4935314;29;20450;-85
2024/01/03 08:35:18;;;;;;;8.97;0.53;;;;;;;;;;4950067;29;20903;-91
2024/01/03 08:37:44;;;;;;;9.87;2.03;;;;;;;;;;4935598;29;20918;-93
2024/01/03 08:40:10;;;;;;;5.60;0.97;;;;;;;;;;4937121;29;20469;-87
2024/01/03 08:42:36;;;;;;;6.78;1.00;;;;;;;;;;4930342;29;20955;-92
2024/01/03 08:45:05;;;;;;;4.10;0.67;;;;;;;;;;4917468;29;20253;-90
2024/01/03 08:47:31;;;;;;;5.93;0.60;;;;;;;;;;4920101;29;20415;-91
2024/01/03 08:49:57;;;;;;;5.93;0.50;;;;;;;;;;4920026;29;20417;-87
2024/01/03 08:52:23;;;;;;;4.17;0.63;;;;;;;;;;4920020;29;20417;-85
2024/01/03 08:54:49;;;;;;;6.23;0.50;;;;;;;;;;4934384;29;20440;-85
2024/01/03 08:57:15;;;;;;;5.67;1.03;;;;;;;;;;4919742;29;20422;-86
2024/01/03 08:59:41;;;;;;;7.80;1.30;;;;;;;;;;4921725;29;20529;-87
2024/01/03 09:02:07;;;;;;;4.07;0.70;;;;;;;;;;4919498;29;20431;-87
2024/01/03 09:04:33;;;;;;;4.13;0.57;;;;;;;;;;4919535;29;20479;-82
2024/01/03 09:06:59;;;;;;;6.77;1.03;;;;;;;;;;4919327;29;20943;-83
2024/01/03 09:09:25;;;;;;;9.47;0.63;;;;;;;;;;4919515;29;20415;-87
2024/01/03 09:11:51;;;;;;;6.20;0.50;;;;;;;;;;4919514;29;20252;-84
2024/01/03 09:14:17;;;;;;;10.23;0.97;;;;;;;;;;4933662;29;20587;-88
2024/01/03 09:16:43;;;;;;;5.47;0.70;;;;;;;;;;4905001;28;20537;-82
2024/01/03 09:19:09;;;;;;;5.53;0.97;;;;;;;;;;4938219;29;20424;-84
2024/01/03 09:21:35;;;;;;;4.97;0.70;;;;;;;;;;4938216;29;20424;-86
2024/01/03 09:24:01;;;;;;;8.40;0.53;;;;;;;;;;4938144;29;20484;-82
2024/01/03 09:26:29;;;;;;;3.87;0.70;;;;;;;;;;4938024;28;20241;-82
2024/01/03 09:28:55;;;;;;;6.80;0.47;;;;;;;;;;4937834;29;20422;-82
2024/01/03 09:31:21;;;;;;;5.67;0.37;;;;;;;;;;4952819;28;20415;-83
2024/01/03 09:33:47;;;;;;;5.63;0.70;;;;;;;;;;4952725;29;20465;-84
2024/01/03 09:36:18;;;;;;;7.20;0.50;;;;;;;;;;4937987;29;20424;-86
2024/01/03 09:38:43;;;;;;;3.67;1.00;;;;;;;;;;4930428;29;20494;-84
2024/01/03 09:41:12;;;;;;;6.53;1.03;;;;;;;;;;4933612;29;20933;-82
2024/01/03 09:43:39;;;;;;;5.23;0.50;;;;;;;;;;4918407;29;20485;-84
2024/01/03 09:46:05;;;;;;;5.30;0.73;;;;;;;;;;4918572;29;20411;-84
2024/01/03 09:48:31;;;;;;;4.83;0.87;;;;;;;;;;4918634;29;20428;-87
2024/01/03 09:51:01;;;;;;;4.20;0.77;;;;;;;;;;4918715;29;20419;-83
2024/01/03 09:53:28;;;;;;;5.97;0.97;;;;;;;;;;4918610;29;20411;-86
2024/01/03 09:55:54;;;;;;;10.93;1.93;;;;;;;;;;4932917;29;20482;-85
2024/01/03 09:58:22;;;;;;;4.93;0.60;;;;;;;;;;4917628;29;20429;-82
2024/01/03 10:00:47;;;;;;;6.33;1.00;;;;;;;;;;4918525;29;20566;-87
2024/01/03 10:03:19;;;;;;;11.37;1.07;;;;;;;;;;4918616;29;20460;-87
2024/01/03 10:06:04;;;;;;;13.90;1.87;;;;;;;;;;4918496;29;20530;-85
2024/01/03 10:08:29;;;;;;;11.77;1.17;;;;;;;;;;4918430;29;20422;-86
2024/01/03 10:10:56;;;;;;;6.40;0.80;;;;;;;;;;4918254;29;20421;-86
2024/01/03 10:13:28;;;;;;;10.90;1.30;;;;;;;;;;4916991;29;20539;-87
2024/01/03 10:15:54;;;;;;;5.93;0.80;;;;;;;;;;4918545;29;20422;-87
2024/01/03 10:18:32;;;;;;;7.27;1.40;;;;;;;;;;4925464;29;21089;-86
2024/01/03 10:21:12;;;;;;;5.90;1.40;;;;;;;;;;4937147;29;20422;-84
2024/01/03 10:23:38;;;;;;;7.40;0.30;;;;;;;;;;4937160;29;20477;-83
2024/01/03 10:26:04;;;;;;;6.20;1.37;;;;;;;;;;4937313;29;20465;-84
2024/01/03 10:28:30;;;;;;;9.50;1.20;;;;;;;;;;4936947;29;20260;-88
2024/01/03 10:30:57;;;;;;;8.53;1.37;;;;;;;;;;4937406;29;20449;-82
2024/01/03 10:33:23;;;;;;;6.90;0.60;;;;;;;;;;4937050;29;20231;-84
2024/01/03 10:35:49;;;;;;;7.07;1.00;;;;;;;;;;4951699;28;20446;-85
2024/01/03 10:38:17;;;;;;;4.70;0.67;;;;;;;;;;4936792;29;20954;-86
2024/01/03 10:40:44;;;;;;;4.40;0.60;;;;;;;;;;4936994;29;20417;-85
2024/01/03 10:43:10;;;;;;;5.17;1.03;;;;;;;;;;4936401;29;20489;-86
2024/01/03 10:45:36;;;;;;;5.10;0.40;;;;;;;;;;4936767;28;20445;-86
2024/01/03 10:48:03;;;;;;;5.03;0.50;;;;;;;;;;4936660;29;20420;-83
2024/01/03 10:50:29;;;;;;;5.53;0.67;;;;;;;;;;4936607;29;20431;-87
2024/01/03 10:52:58;;;;;;;8.33;1.07;;;;;;;;;;4951434;28;20442;-85
2024/01/03 10:55:33;;;;;;;4.00;0.57;;;;;;;;;;4951423;29;20990;-84
2024/01/03 10:58:06;;;;;;;4.37;0.20;;;;;;;;;;4950904;29;20436;-84
2024/01/03 11:00:38;;;;;;;6.07;1.03;;;;;;;;;;4936496;29;20413;-83
2024/01/03 11:03:11;;;;;;;6.97;1.10;;;;;;;;;;4950979;28;20425;-85
2024/01/03 11:05:55;;;;;;;7.33;0.80;;;;;;;;;;4936451;29;20431;-84
2024/01/03 11:08:23;;;;;;;10.93;1.07;;;;;;;;;;4936226;29;20519;-83
2024/01/03 11:10:55;;;;;;;7.10;1.20;;;;;;;;;;4950920;28;20813;-84
2024/01/03 11:13:27;;;;;;;6.43;0.87;;;;;;;;;;4935928;29;20523;-83
2024/01/03 11:15:59;;;;;;;5.60;0.63;;;;;;;;;;4951069;28;20926;-86
2024/01/03 11:18:41;;;;;;;8.10;1.07;;;;;;;;;;4936244;29;20471;-83
2024/01/03 11:21:28;;;;;;;3.93;1.10;;;;;;;;;;4936189;29;20448;-84
2024/01/03 11:23:54;;;;;;;8.00;0.60;;;;;;;;;;4936055;29;20530;-85
2024/01/03 11:26:20;;;;;;;3.53;0.40;;;;;;;;;;4950832;28;20780;-86
2024/01/03 11:28:49;;;;;;;5.20;0.30;;;;;;;;;;4935646;29;20434;-84
2024/01/03 11:31:35;;;;;;;9.07;1.10;;;;;;;;;;4934843;29;21029;-85
2024/01/03 11:34:01;;;;;;;10.50;1.30;;;;;;;;;;4935854;29;20974;-83
2024/01/03 11:36:47;;;;;;;6.40;0.53;;;;;;;;;;4936111;29;20416;-86
2024/01/03 11:39:31;;;;;;;3.53;0.20;;;;;;;;;;4935649;29;20529;-85
2024/01/03 11:41:58;;;;;;;3.87;0.50;;;;;;;;;;4935537;29;20423;-83
2024/01/03 11:44:24;;;;;;;7.17;1.00;;;;;;;;;;4935845;29;21040;-86
2024/01/03 11:46:57;;;;;;;5.77;0.93;;;;;;;;;;4935962;29;20407;-83
2024/01/03 11:49:23;;;;;;;4.03;0.53;;;;;;;;;;4935854;29;20204;-83
2024/01/03 11:51:49;;;;;;;10.80;1.00;;;;;;;;;;4935850;29;20893;-87
2024/01/03 11:54:15;;;;;;;4.60;0.50;;;;;;;;;;4935847;29;20179;-84
2024/01/03 11:56:40;;;;;;;10.80;0.90;;;;;;;;;;4934670;29;20434;-86
2024/01/03 11:59:06;;;;;;;5.23;0.67;;;;;;;;;;4935392;29;20426;-86
2024/01/03 12:01:33;;;;;;;5.80;0.60;;;;;;;;;;4935686;29;20179;-85
2024/01/03 12:04:14;;;;;;;3.00;0.40;;;;;;;;;;4935775;29;20301;-85
2024/01/03 12:06:40;;;;;;;4.73;0.57;;;;;;;;;;4935715;29;20422;-84
2024/01/03 12:09:06;;;;;;;5.70;0.80;;;;;;;;;;4950540;28;20884;-83
2024/01/03 12:11:33;;;;;;;7.00;0.40;;;;;;;;;;4935625;29;20900;-84
2024/01/03 12:14:09;;;;;;;5.10;0.53;;;;;;;;;;4950020;28;20780;-88
2024/01/03 12:16:49;;;;;;;5.60;0.40;;;;;;;;;;4935788;29;20419;-87
2024/01/03 12:19:35;;;;;;;1.97;0.30;;;;;;;;;;4950578;28;20432;-85
2024/01/03 12:22:02;;;;;;;2.97;0.60;;;;;;;;;;4939329;29;20923;-84
2024/01/03 12:24:44;;;;;;;5.00;0.40;;;;;;;;;;4939543;29;20482;-87
2024/01/03 12:27:10;;;;;;;4.17;1.07;;;;;;;;;;4939166;29;20818;-87
2024/01/03 12:29:39;;;;;;;4.83;0.70;;;;;;;;;;4939442;29;20410;-87
2024/01/03 12:32:09;;;;;;;3.63;0.80;;;;;;;;;;4939506;28;20486;-86
2024/01/03 12:34:36;;;;;;;8.40;0.50;;;;;;;;;;4939460;29;20429;-87
2024/01/03 12:37:02;;;;;;;7.53;0.60;;;;;;;;;;4939476;29;20426;-86
2024/01/03 12:39:35;;;;;;;1.80;0.30;;;;;;;;;;4939248;29;20459;-87
2024/01/03 12:42:08;;;;;;;8.43;0.67;;;;;;;;;;4939094;28;20427;-88
2024/01/03 12:44:38;;;;;;;5.07;0.77;;;;;;;;;;4939267;29;20479;-87
2024/01/03 12:47:10;;;;;;;6.10;1.23;;;;;;;;;;4954064;28;20421;-87
2024/01/03 12:49:39;;;;;;;3.50;0.50;;;;;;;;;;4939219;29;20427;-87
2024/01/03 12:52:06;;;;;;;2.77;0.30;;;;;;;;;;4939245;29;20427;-86
2024/01/03 12:54:33;;;;;;;2.20;0.30;;;;;;;;;;4954239;28;20439;-89
2024/01/03 12:56:59;;;;;;;3.47;0.80;;;;;;;;;;4953825;28;20429;-87
2024/01/03 12:59:25;;;;;;;6.13;0.30;;;;;;;;;;4938934;29;20422;-86
2024/01/03 13:01:54;;;;;;;2.70;0.60;;;;;;;;;;4938658;29;20428;-86
2024/01/03 13:04:20;;;;;;;6.73;0.40;;;;;;;;;;4953311;29;20544;-87
2024/01/03 13:06:49;;;;;;;5.10;0.67;;;;;;;;;;4953327;29;20424;-88
2024/01/03 13:09:24;;;;;;;1.23;0.20;;;;;;;;;;4953253;29;20423;-87
2024/01/03 13:11:53;;;;;;;3.80;0.53;;;;;;;;;;4952977;29;20426;-88
2024/01/03 13:14:19;;;;;;;3.63;0.20;;;;;;;;;;4938548;29;20414;-86
2024/01/03 13:16:45;;;;;;;5.50;0.50;;;;;;;;;;4938445;29;20411;-87
2024/01/03 13:19:12;;;;;;;2.80;0.47;;;;;;;;;;4938594;29;20425;-90
2024/01/03 13:21:38;;;;;;;4.73;0.37;;;;;;;;;;4938234;29;20423;-88
2024/01/03 13:24:19;;;;;;;4.60;0.60;;;;;;;;;;4953126;29;20573;-88
2024/01/03 13:26:47;;;;;;;7.30;0.70;;;;;;;;;;4938131;29;20960;-86
2024/01/03 13:29:13;;;;;;;3.73;0.33;;;;;;;;;;4938244;29;20407;-86
2024/01/03 13:31:39;;;;;;;3.80;0.73;;;;;;;;;;4952824;28;20521;-88
2024/01/03 13:34:05;;;;;;;4.97;0.60;;;;;;;;;;4938130;29;20453;-86
2024/01/03 13:36:43;;;;;;;6.57;3.13;;;;;;;;;;4952988;28;21019;-87
2024/01/03 13:39:14;;;;;;;4.10;0.30;;;;;;;;;;4938047;29;20466;-88
2024/01/03 13:41:40;;;;;;;3.87;0.63;;;;;;;;;;4937706;29;20431;-88
2024/01/03 13:44:06;;;;;;;3.13;0.40;;;;;;;;;;4937928;29;20494;-87
2024/01/03 13:46:32;;;;;;;4.33;0.30;;;;;;;;;;4952881;28;20442;-86
2024/01/03 13:49:01;;;;;;;4.13;0.30;;;;;;;;;;4938057;29;20639;-87
2024/01/03 13:51:27;;;;;;;1.87;0.37;;;;;;;;;;4952542;28;20424;-85
2024/01/03 13:53:57;;;;;;;5.57;0.57;;;;;;;;;;4937817;29;20422;-89
2024/01/03 13:56:27;;;;;;;6.07;0.70;;;;;;;;;;4952626;28;20460;-85
2024/01/03 13:58:53;;;;;;;4.27;0.50;;;;;;;;;;4937718;29;20506;-84
2024/01/03 14:01:20;;;;;;;5.40;1.00;;;;;;;;;;4923023;28;20538;-88
2024/01/03 14:03:52;;;;;;;1.80;0.30;;;;;;;;;;4952595;28;20465;-88
2024/01/03 14:06:27;;;;;;;2.33;0.30;;;;;;;;;;4952520;28;20427;-86
2024/01/03 14:08:58;;;;;;;1.83;0.50;;;;;;;;;;4952309;29;20423;-86
2024/01/03 14:11:34;;;;;;;3.40;0.50;;;;;;;;;;4952192;29;20518;-88
2024/01/03 14:14:03;;;;;;;2.20;0.30;;;;;;;;;;4937495;29;20424;-87
2024/01/03 14:16:32;;;;;;;3.47;0.57;;;;;;;;;;4937574;29;20423;-87
2024/01/03 14:18:58;;;;;;;2.97;0.20;;;;;;;;;;4937317;29;20412;-83
2024/01/03 14:21:24;;;;;;;4.63;0.73;;;;;;;;;;4936777;29;20433;-83
2024/01/03 14:23:55;;;;;;;2.70;0.53;;;;;;;;;;4936642;29;20486;-85
2024/01/03 14:26:21;;;;;;;4.63;0.40;;;;;;;;;;4936424;29;20457;-85
2024/01/03 14:28:47;;;;;;;6.30;0.30;;;;;;;;;;4951326;29;20466;-85
2024/01/03 14:31:13;;;;;;;6.93;1.00;;;;;;;;;;4936417;29;20493;-84
2024/01/03 14:33:39;;;;;;;3.07;0.60;;;;;;;;;;4951237;29;20444;-86
2024/01/03 14:36:16;;;;;;;9.07;0.70;;;;;;;;;;4936596;29;20428;-86
2024/01/03 14:38:42;;;;;;;5.07;2.37;;;;;;;;;;4934242;29;20460;-84
2024/01/03 14:41:13;;;;;;;7.17;1.10;;;;;;;;;;4935251;29;20928;-85
2024/01/03 14:43:44;;;;;;;4.20;0.67;;;;;;;;;;4950731;28;20504;-86
2024/01/03 14:46:10;;;;;;;3.00;0.93;;;;;;;;;;4951746;29;20421;-87